| time (UTC) | temp C | wind direction | speed KPH | gust KPH | rain 1hr cm | rain 24hr cm | rain mn cm | humidity % | barometer mb |
| 20260906113356 | 22 | 315 | 3.2 | 4.8 | 0.00 | 0.00 | 0.00 | ||
| 20260906111952 | 22 | 260 | 0.0 | 0.0 | 0.00 | 0.00 | 0.00 | ||
| 20260906111902 | 22 | 260 | 0.0 | 0.0 | 0.00 | 0.00 | 0.00 | ||
| 20260906110407 | -17 | 146 | 1367.9 | 0.0 | 0.00 | 0.00 | 0.00 | ||
| 20260906110404 | 22 | 260 | 0.0 | 0.0 | 0.00 | 0.00 | 0.00 | ||
| 20260906104910 | 22 | 260 | 0.0 | 0.0 | 0.00 | 0.00 | 0.00 | ||
| 20260906103416 | 22 | 260 | 0.0 | 0.0 | 0.00 | 0.00 | 0.00 | ||
| 20260906101949 | 22 | 325 | 4.8 | 3.2 | 0.00 | 0.00 | 0.00 | ||
| 20260906101922 | -17 | 146 | 1367.9 | 0.0 | 0.00 | 0.00 | 0.00 | ||
| 20260906101917 | 22 | 325 | 4.8 | 3.2 | 0.00 | 0.00 | 0.00 | ||
| 20260906100423 | 22 | 311 | 0.0 | 0.0 | 0.00 | 0.00 | 0.00 | ||
| 20260906094929 | 22 | 326 | 4.8 | 6.4 | 0.00 | 0.00 | 0.00 | ||
| 20260906093436 | -17 | 146 | 1367.9 | 0.0 | 0.00 | 0.00 | 0.00 | ||
| 20260906093433 | 22 | 329 | 3.2 | 3.2 | 0.00 | 0.00 | 0.00 | ||
| 20260906091936 | 22 | 346 | 3.2 | 3.2 | 0.00 | 0.00 | 0.00 | ||
| 20260906090516 | 22 | 349 | 3.2 | 1.6 | 0.00 | 0.00 | 0.00 | ||
| 20260906090442 | 22 | 349 | 3.2 | 1.6 | 0.00 | 0.00 | 0.00 | ||
| 20260906084944 | 22 | 309 | 4.8 | 4.8 | 0.00 | 0.00 | 0.00 | ||
| 20260906081957 | 22 | 342 | 1.6 | 3.2 | 0.00 | 0.00 | 0.00 | ||
| 20260906080501 | -17 | 146 | 1367.9 | 0.0 | 0.00 | 0.00 | 0.00 | ||
| 20260906080458 | 22 | 315 | 3.2 | 4.8 | 0.00 | 0.00 | 0.00 | ||
| 20260906075004 | 22 | 307 | 6.4 | 6.4 | 0.00 | 0.00 | 0.00 | ||
| 20260906073509 | 22 | 316 | 4.8 | 6.4 | 0.00 | 0.00 | 0.00 | ||
| 20260906072015 | -17 | 146 | 1367.9 | 0.0 | 0.00 | 0.00 | 0.00 | ||
| 20260906072011 | 23 | 319 | 4.8 | 6.4 | 0.00 | 0.00 | 0.00 | ||
| 20260906070601 | 23 | 335 | 3.2 | 3.2 | 0.00 | 0.00 | 0.00 | ||
| 20260906070517 | 23 | 335 | 3.2 | 3.2 | 0.00 | 0.00 | 0.00 | ||
| 20260906065022 | 23 | 349 | 1.6 | 4.8 | 0.00 | 0.00 | 0.00 | ||
| 20260906063528 | -17 | 146 | 1367.9 | 0.0 | 0.00 | 0.00 | 0.00 | ||
| 20260906063525 | 23 | 346 | 3.2 | 3.2 | 0.00 | 0.00 | 0.00 | ||
| 20260906062032 | 23 | 304 | 8.0 | 8.0 | 0.00 | 0.00 | 0.00 | ||
| 20260906060536 | 24 | 345 | 3.2 | 3.2 | 0.00 | 0.00 | 0.00 | ||
| 20260906055043 | -17 | 146 | 1367.9 | 0.0 | 0.00 | 0.00 | 0.00 | ||
| 20260906055038 | 24 | 335 | 0.0 | 0.0 | 0.00 | 0.00 | 0.00 | ||
| 20260906053545 | 25 | 295 | 4.8 | 4.8 | 0.00 | 0.00 | 0.00 | ||
| 20260906052050 | 25 | 328 | 4.8 | 1.6 | 0.00 | 0.00 | 0.00 | ||
| 20260906050637 | 25 | 291 | 9.7 | 9.7 | 0.00 | 0.00 | 0.00 | ||
| 20260906050556 | -17 | 146 | 1367.9 | 0.0 | 0.00 | 0.00 | 0.00 | ||
| 20260906050551 | 25 | 291 | 9.7 | 9.7 | 0.00 | 0.00 | 0.00 | ||
| 20260906045204 | 25 | 315 | 9.7 | 9.7 | 0.00 | 0.00 | 0.00 | ||
| 20260906045057 | 25 | 315 | 9.7 | 9.7 | 0.00 | 0.00 | 0.00 | ||
| 20260906043605 | 25 | 308 | 4.8 | 8.0 | 0.00 | 0.00 | 0.00 | ||
| 20260906042229 | -17 | 146 | 1367.9 | 0.0 | 0.00 | 0.00 | 0.00 | ||
| 20260906042108 | -17 | 146 | 1367.9 | 0.0 | 0.00 | 0.00 | 0.00 | ||
| 20260906042106 | 25 | 93 | 0.0 | 0.0 | 0.00 | 0.00 | 0.00 | ||
| 20260906040643 | 25 | 93 | 0.0 | 0.0 | 0.00 | 0.00 | 0.00 | ||
| 20260906040612 | 25 | 93 | 0.0 | 0.0 | 0.00 | 0.00 | 0.00 | ||
| 20260906033706 | 26 | 319 | 0.0 | 0.0 | 0.00 | 0.00 | 0.00 | ||
| 20260906033622 | -17 | 146 | 1367.9 | 0.0 | 0.00 | 0.00 | 0.00 | ||
| 20260906033618 | 26 | 319 | 0.0 | 0.0 | 0.00 | 0.00 | 0.00 | ||
| 20260906032125 | 26 | 333 | 1.6 | 1.6 | 0.00 | 0.00 | 0.00 | ||
| 20260906030702 | 27 | 326 | 4.8 | 3.2 | 0.00 | 0.00 | 0.00 | ||
| 20260906030630 | 27 | 326 | 4.8 | 3.2 | 0.00 | 0.00 | 0.00 | ||
| 20260906025223 | -17 | 146 | 1367.9 | 0.0 | 0.00 | 0.00 | 0.00 | ||
| 20260906025135 | -17 | 146 | 1367.9 | 0.0 | 0.00 | 0.00 | 0.00 | ||
| 20260906025133 | 27 | 108 | 0.0 | 0.0 | 0.00 | 0.00 | 0.00 | ||
| 20260906023638 | 27 | 288 | 3.2 | 3.2 | 0.00 | 0.00 | 0.00 | ||
| 20260906022144 | 27 | 301 | 4.8 | 4.8 | 0.00 | 0.00 | 0.00 | ||
| 20260906020648 | -17 | 146 | 1367.9 | 0.0 | 0.00 | 0.00 | 0.00 | ||
| 20260906020646 | 27 | 263 | 1.6 | 0.0 | 0.00 | 0.00 | 0.00 | ||
| 20260906015230 | 27 | 315 | 3.2 | 3.2 | 0.00 | 0.00 | 0.00 | ||
| 20260906015151 | 27 | 315 | 3.2 | 3.2 | 0.00 | 0.00 | 0.00 | ||
| 20260906013657 | 27 | 302 | 9.7 | 9.7 | 0.00 | 0.00 | 0.00 | ||
| 20260906012238 | -17 | 146 | 1367.9 | 0.0 | 0.00 | 0.00 | 0.00 | ||
| 20260906012202 | -17 | 146 | 1367.9 | 0.0 | 0.00 | 0.00 | 0.00 | ||
| 20260906012159 | 27 | 312 | 11.3 | 11.3 | 0.00 | 0.00 | 0.00 | ||
| 20260906010807 | 28 | 307 | 6.4 | 8.0 | 0.00 | 0.00 | 0.00 | ||
| 20260906010705 | 28 | 307 | 6.4 | 8.0 | 0.00 | 0.00 | 0.00 | ||
| 20260906005804 | 28 | 231 | 0.0 | 0.0 | 0.00 | 0.00 | 0.00 | ||
| 20260906005302 | 28 | 231 | 0.0 | 0.0 | 0.00 | 0.00 | 0.00 | ||
| 20260906005211 | 28 | 231 | 0.0 | 0.0 | 0.00 | 0.00 | 0.00 | ||
| 20260906003926 | 28 | 285 | 1.6 | 3.2 | 0.00 | 0.00 | 0.00 | ||
| 20260906003715 | -17 | 146 | 1367.9 | 0.0 | 0.00 | 0.00 | 0.00 | ||
| 20260906003712 | 28 | 285 | 1.6 | 3.2 | 0.00 | 0.00 | 0.00 | ||
| 20260906002252 | 28 | 263 | 0.0 | 0.0 | 0.00 | 0.00 | 0.00 | ||
| 20260906002218 | 28 | 263 | 0.0 | 0.0 | 0.00 | 0.00 | 0.00 | ||
| 20260906000724 | 28 | 231 | 3.2 | 3.2 | 0.00 | 0.00 | 0.00 | ||
| 20260905235228 | -17 | 146 | 1367.9 | 0.0 | 0.00 | 0.00 | 0.00 | ||
| 20260905235226 | 28 | 210 | 1.6 | 1.6 | 0.00 | 0.00 | 0.00 | ||
| 20260905233823 | 29 | 249 | 4.8 | 3.2 | 0.00 | 0.00 | 0.00 | ||
| 20260905233731 | 29 | 249 | 4.8 | 3.2 | 0.00 | 0.00 | 0.00 | ||
| 20260905232237 | 29 | 287 | 4.8 | 4.8 | 0.00 | 0.00 | 0.00 | ||
| 20260905230819 | -17 | 146 | 1367.9 | 0.0 | 0.00 | 0.00 | 0.00 | ||
| 20260905230741 | -17 | 146 | 1367.9 | 0.0 | 0.00 | 0.00 | 0.00 | ||
| 20260905225246 | 30 | 201 | 4.8 | 3.2 | 0.00 | 0.00 | 0.00 | ||
| 20260905222433 | -17 | 146 | 1367.9 | 0.0 | 0.00 | 0.00 | 0.00 | ||
| 20260905222255 | -17 | 146 | 1367.9 | 0.0 | 0.00 | 0.00 | 0.00 | ||
| 20260905222252 | 30 | 249 | 8.0 | 9.7 | 0.00 | 0.00 | 0.00 | ||
| 20260905220758 | 31 | 228 | 3.2 | 8.0 | 0.00 | 0.00 | 0.00 | ||
| 20260905220556 | -17 | 146 | 1367.9 | 0.0 | 0.00 | 0.00 | 0.00 | ||
| 20260905213808 | -17 | 146 | 1367.9 | 0.0 | 0.00 | 0.00 | 0.00 | ||
| 20260905213806 | 31 | 187 | 8.0 | 8.0 | 0.00 | 0.00 | 0.00 | ||
| 20260905210853 | 32 | 207 | 6.4 | 9.7 | 0.00 | 0.00 | 0.00 | ||
| 20260905210817 | 32 | 207 | 6.4 | 9.7 | 0.00 | 0.00 | 0.00 | ||
| 20260905205526 | -17 | 146 | 1367.9 | 0.0 | 0.00 | 0.00 | 0.00 | ||
| 20260905205322 | -17 | 146 | 1367.9 | 0.0 | 0.00 | 0.00 | 0.00 | ||
| 20260905203824 | 33 | 203 | 1.6 | 8.0 | 0.00 | 0.00 | 0.00 | ||
| 20260905202413 | 32 | 269 | 4.8 | 4.8 | 0.00 | 0.00 | 0.00 | ||
| 20260905202330 | 32 | 269 | 4.8 | 4.8 | 0.00 | 0.00 | 0.00 | ||
| 20260905201355 | -17 | 146 | 1367.9 | 0.0 | 0.00 | 0.00 | 0.00 | ||
| 20260905200835 | -17 | 146 | 1367.9 | 0.0 | 0.00 | 0.00 | 0.00 | ||
| 20260905200832 | 33 | 274 | 4.8 | 4.8 | 0.00 | 0.00 | 0.00 | ||
| 20260905195425 | 32 | 217 | 3.2 | 1.6 | 0.00 | 0.00 | 0.00 | ||
| 20260905195338 | 32 | 217 | 3.2 | 1.6 | 0.00 | 0.00 | 0.00 | ||
| 20260905194024 | 32 | 311 | 6.4 | 4.8 | 0.00 | 0.00 | 0.00 | ||
| 20260905193844 | 32 | 311 | 6.4 | 4.8 | 0.00 | 0.00 | 0.00 | ||
| 20260905192347 | 33 | 332 | 1.6 | 1.6 | 0.00 | 0.00 | 0.00 | ||
| 20260905190932 | 33 | 259 | 4.8 | 8.0 | 0.00 | 0.00 | 0.00 | ||
| 20260905190851 | 33 | 259 | 4.8 | 8.0 | 0.00 | 0.00 | 0.00 | ||
| 20260905185524 | 33 | 291 | 4.8 | 8.0 | 0.00 | 0.00 | 0.00 | ||
| 20260905185357 | 33 | 291 | 4.8 | 8.0 | 0.00 | 0.00 | 0.00 | ||
| 20260905184323 | -17 | 146 | 1367.9 | 0.0 | 0.00 | 0.00 | 0.00 | ||
| 20260905183902 | -17 | 146 | 1367.9 | 0.0 | 0.00 | 0.00 | 0.00 | ||
| 20260905183900 | 34 | 141 | 4.8 | 1.6 | 0.00 | 0.00 | 0.00 | ||
| 20260905182715 | 33 | 183 | 6.4 | 6.4 | 0.00 | 0.00 | 0.00 | ||
| 20260905182405 | 33 | 183 | 6.4 | 6.4 | 0.00 | 0.00 | 0.00 | ||
| 20260905180951 | 32 | 204 | 3.2 | 6.4 | 0.00 | 0.00 | 0.00 | ||
| 20260905180910 | 32 | 204 | 3.2 | 6.4 | 0.00 | 0.00 | 0.00 | ||
| 20260905175415 | -17 | 146 | 1367.9 | 0.0 | 0.00 | 0.00 | 0.00 | ||
| 20260905175413 | 33 | 214 | 3.2 | 4.8 | 0.00 | 0.00 | 0.00 | ||
| 20260905173918 | 32 | 90 | 3.2 | 1.6 | 0.00 | 0.00 | 0.00 | ||
| 20260905172424 | 32 | 283 | 6.4 | 4.8 | 0.00 | 0.00 | 0.00 | ||
| 20260905170929 | -17 | 146 | 1367.9 | 0.0 | 0.00 | 0.00 | 0.00 | ||
| 20260905170926 | 32 | 155 | 3.2 | 1.6 | 0.00 | 0.00 | 0.00 | ||
| 20260905165432 | 32 | 120 | 4.8 | 3.2 | 0.00 | 0.00 | 0.00 | ||
| 20260905163938 | 32 | 38 | 4.8 | 6.4 | 0.00 | 0.00 | 0.00 | ||
| 20260905162442 | -17 | 146 | 1367.9 | 0.0 | 0.00 | 0.00 | 0.00 | ||
| 20260905162440 | 31 | 276 | 3.2 | 8.0 | 0.00 | 0.00 | 0.00 | ||
| 20260905161051 | 30 | 55 | 4.8 | 1.6 | 0.00 | 0.00 | 0.00 | ||
| 20260905160945 | 30 | 55 | 4.8 | 1.6 | 0.00 | 0.00 | 0.00 | ||
| 20260905155451 | 31 | 253 | 4.8 | 3.2 | 0.00 | 0.00 | 0.00 | ||
| 20260905153956 | -17 | 146 | 1367.9 | 0.0 | 0.00 | 0.00 | 0.00 | ||
| 20260905153953 | 30 | 222 | 4.8 | 6.4 | 0.00 | 0.00 | 0.00 | ||
| 20260905152459 | 30 | 163 | 4.8 | 3.2 | 0.00 | 0.00 | 0.00 | ||
| 20260905151004 | 30 | 211 | 1.6 | 4.8 | 0.00 | 0.00 | 0.00 | ||
| 20260905145509 | -17 | 146 | 1367.9 | 0.0 | 0.00 | 0.00 | 0.00 | ||
| 20260905144012 | 28 | 235 | 3.2 | 1.6 | 0.00 | 0.00 | 0.00 | ||
| 20260905142518 | 28 | 210 | 4.8 | 8.0 | 0.00 | 0.00 | 0.00 | ||
| 20260905141023 | -17 | 146 | 1367.9 | 0.0 | 0.00 | 0.00 | 0.00 | ||
| 20260905141020 | 28 | 32 | 0.0 | 0.0 | 0.00 | 0.00 | 0.00 | ||
| 20260905132605 | 26 | 30 | 0.0 | 0.0 | 0.00 | 0.00 | 0.00 | ||
| 20260905132533 | 26 | 30 | 0.0 | 0.0 | 0.00 | 0.00 | 0.00 | ||
| 20260905131039 | 26 | 63 | 0.0 | 0.0 | 0.00 | 0.00 | 0.00 | ||
| 20260905125545 | 25 | 297 | 0.0 | 0.0 | 0.00 | 0.00 | 0.00 | ||
| 20260905124049 | -17 | 146 | 1367.9 | 0.0 | 0.00 | 0.00 | 0.00 | ||
| 20260905122552 | 25 | 338 | 0.0 | 0.0 | 0.00 | 0.00 | 0.00 | ||
| 20260905121138 | 24 | 139 | 0.0 | 0.0 | 0.00 | 0.00 | 0.00 | ||
| 20260905121058 | 24 | 139 | 0.0 | 0.0 | 0.00 | 0.00 | 0.00 | ||
| 20260905115736 | -17 | 146 | 1367.9 | 0.0 | 0.00 | 0.00 | 0.00 | ||
| 20260905115603 | -17 | 146 | 1367.9 | 0.0 | 0.00 | 0.00 | 0.00 | ||
| 20260905115559 | 23 | 139 | 0.0 | 0.0 | 0.00 | 0.00 | 0.00 |